Latest Weather Observations for Montague Island

IDN60901

Issued at 7:11 pm EST Wednesday 12 August 2020 (issued every 10 minutes, with the page automatically refreshed every 10 minutes)

About weather observations | Map of Canberra area stations | Latest observations for Canberra area | Other Formats
Station Details ID: 069017 Name: MONTAGUE ISLAND LIGHTHOUSE Lat: -36.25 Lon: 150.23 Height: 52.0 m
Data from the previous 72 hours. | See also: Recent months at Montague Island
Date/Time
EST
Temp
°C
App
Temp
°C
Dew
Point
°C
Rel
Hum
%
Delta-T
°C
Wind Press
QNH
hPa
Press
MSL
hPa
Rain since
9am
mm
Dir  Spd
km/h
Gust
km/h
Spd
kts
Gust
kts
12/07:00pm 15.1 10.4 12.1 82 1.6 NNW 28 35 15 19 1010.7 1010.7 0.0
12/06:30pm 15.3 10.1 11.5 78 2.0 NNW 30 41 16 22 1010.3 1010.3 0.0
12/06:00pm 15.2 10.5 12.0 81 1.7 NNW 28 35 15 19 1010.2 1010.2 0.0
12/05:30pm 15.1 10.6 11.5 79 1.9 N 26 33 14 18 1010.2 1010.2 0.0
12/05:00pm 15.2 11.0 11.0 76 2.2 NNW 24 32 13 17 1009.9 1009.9 0.0
12/04:30pm 15.0 12.3 11.8 81 1.7 NNW 17 22 9 12 1010.2 1010.2 0.0
12/04:00pm 15.1 12.8 11.7 80 1.8 NNW 15 20 8 11 1010.3 1010.3 0.0
12/03:30pm 15.0 13.2 11.0 77 2.1 N 11 15 6 8 1010.4 1010.4 0.0
12/03:00pm 14.4 12.5 10.4 77 2.1 N 11 15 6 8 1010.6 1010.6 0.0
12/02:30pm 14.3 12.3 10.3 77 2.1 NNE 11 17 6 9 1010.8 1010.8 0.0
12/02:00pm 14.7 12.4 10.5 76 2.2 NE 13 17 7 9 1010.6 1010.6 0.0
12/01:30pm 14.5 12.1 10.1 75 2.3 NNE 13 17 7 9 1011.0 1011.0 0.0
12/01:00pm 14.3 11.0 9.5 73 2.5 NNE 17 20 9 11 1011.5 1011.5 0.0
12/12:30pm 14.2 11.3 9.8 75 2.3 N 15 20 8 11 1012.1 1012.1 0.0
12/12:00pm 14.1 10.2 9.5 74 2.4 NNW 20 26 11 14 1012.6 1012.6 0.0
12/11:30am 13.4 9.9 8.9 74 2.3 NW 17 22 9 12 1013.3 1013.2 0.0
12/11:00am 13.3 9.4 8.8 74 2.3 NNW 19 26 10 14 1013.8 1013.8 0.0
12/10:30am 13.0 9.5 8.9 76 2.1 NW 17 20 9 11 1014.2 1014.2 0.0
12/10:00am 12.9 9.5 9.2 78 1.9 NW 17 20 9 11 1014.7 1014.7 0.0
12/09:30am 12.5 9.8 9.1 80 1.7 NNW 13 15 7 8 1014.5 1014.5 0.0
12/09:00am 12.5 8.8 9.5 82 1.5 NNW 19 24 10 13 1014.5 1014.5 0.0
12/08:30am 12.3 8.6 9.3 82 1.5 NNW 19 22 10 12 1014.4 1014.4 0.0
12/08:00am 11.8 7.9 8.8 82 1.5 NNW 19 22 10 12 1014.3 1014.3 0.0
12/07:30am 11.5 7.9 8.4 81 1.5 NNW 17 22 9 12 1014.3 1014.3 0.0
12/07:00am 11.9 8.2 9.3 84 1.3 NW 19 24 10 13 1014.4 1014.4 0.0
12/06:30am 11.9 8.6 9.5 85 1.2 NW 17 20 9 11 1014.2 1014.2 0.0
12/06:00am 13.0 8.0 9.6 80 1.7 NNW 26 37 14 20 1014.2 1014.2 0.0
12/05:30am 12.8 7.3 9.1 78 1.9 NNW 28 37 15 20 1014.0 1014.0 0.0
12/05:00am 12.7 7.3 9.5 81 1.6 N 28 35 15 19 1014.4 1014.4 0.0
12/04:30am 12.7 7.8 10.1 84 1.3 N 26 35 14 19 1014.1 1014.1 0.0
12/04:00am 13.2 6.8 9.3 77 2.0 N 33 43 18 23 1014.2 1014.2 0.0
12/03:30am 13.1 6.9 9.2 77 2.0 N 32 43 17 23 1014.3 1014.3 0.0
12/03:00am 12.5 7.7 10.4 87 1.1 N 26 32 14 17 1014.6 1014.6 0.0
12/02:30am 12.4 7.1 10.0 85 1.2 N 28 35 15 19 1015.0 1015.0 0.0
12/02:00am 12.3 7.2 9.3 82 1.5 N 26 33 14 18 1015.3 1015.3 0.0
12/01:30am 11.8 7.4 8.8 82 1.5 NNW 22 30 12 16 1015.8 1015.8 0.0
12/01:00am 12.0 6.8 9.0 82 1.5 NNW 26 32 14 17 1015.9 1015.9 0.0
12/12:30am 12.5 7.6 9.9 84 1.3 N 26 32 14 17 1016.1 1016.1 0.0
12/12:00am 12.4 8.2 9.6 83 1.4 NNW 22 30 12 16 1015.9 1015.9 0.0
 
Date/Time
EST
Temp
°C
App
Temp
°C
Dew
Point
°C
Rel
Hum
%
Delta-T
°C
Wind Press
QNH
hPa
Press
MSL
hPa
Rain since
9am
mm
Dir  Spd
km/h
Gust
km/h
Spd
kts
Gust
kts
11/11:30pm 12.7 8.1 9.7 82 1.5 NNW 24 30 13 16 1016.2 1016.2 0.0
11/11:21pm 13.4 7.8 10.0 80 1.8 N 30 44 16 24 1016.2 1016.2 0.0
11/11:00pm 14.2 7.3 10.4 78 2.0 N 37 48 20 26 1016.3 1016.3 0.0
11/10:30pm 14.2 8.3 10.4 78 2.0 N 32 43 17 23 1016.6 1016.6 0.0
11/10:00pm 14.3 7.2 9.7 74 2.4 N 37 44 20 24 1016.6 1016.6 0.0
11/09:30pm 14.1 7.5 9.9 76 2.2 N 35 46 19 25 1016.9 1016.9 0.0
11/09:00pm 14.2 8.2 10.2 77 2.1 N 32 44 17 24 1017.3 1017.3 0.0
11/08:30pm 14.7 7.6 9.7 72 2.6 N 37 44 20 24 1017.3 1017.3 0.0
11/08:00pm 14.7 8.4 9.7 72 2.6 NNE 33 43 18 23 1017.3 1017.3 0.0
11/07:30pm 14.7 8.3 9.3 70 2.8 NNE 33 41 18 22 1017.3 1017.3 0.0
11/07:00pm 14.7 8.2 8.9 68 3.0 NNE 33 41 18 22 1017.3 1017.3 0.0
11/06:30pm 14.6 8.2 9.2 70 2.8 NNE 33 41 18 22 1017.1 1017.1 0.0
11/06:00pm 14.6 8.1 8.8 68 2.9 NNE 33 41 18 22 1016.7 1016.7 0.0
11/05:30pm 14.6 8.1 9.0 69 2.9 NNE 33 39 18 21 1016.5 1016.5 0.0
11/05:00pm 14.5 8.0 8.9 69 2.8 NNE 33 39 18 21 1016.3 1016.3 0.0
11/04:30pm 14.6 8.3 8.8 68 2.9 NNE 32 41 17 22 1016.3 1016.3 0.0
11/04:00pm 14.7 7.9 7.7 63 3.5 NNE 33 39 18 21 1016.3 1016.3 0.0
11/03:30pm 15.0 8.8 8.0 63 3.5 NNE 30 39 16 21 1016.6 1016.6 0.0
11/03:00pm 15.0 8.8 7.8 62 3.6 NNE 30 37 16 20 1016.8 1016.8 0.0
11/02:30pm 15.0 8.7 7.5 61 3.7 NNE 30 37 16 20 1017.0 1017.0 0.0
11/02:00pm 15.1 8.8 7.2 59 3.9 N 30 37 16 20 1017.4 1017.4 0.0
11/01:30pm 15.4 9.9 7.4 59 4.0 N 26 37 14 20 1017.5 1017.5 0.0
11/01:00pm 15.5 10.4 7.5 59 4.0 N 24 33 13 18 1017.8 1017.8 0.0
11/12:30pm 15.5 10.7 7.3 58 4.1 N 22 32 12 17 1018.4 1018.4 0.0
11/12:00pm 15.1 9.8 6.9 58 4.0 NNW 24 33 13 18 1019.0 1019.0 0.0
11/11:30am 15.0 10.1 6.8 58 4.0 NW 22 30 12 16 1019.5 1019.5 0.0
11/11:00am 14.8 9.6 7.4 61 3.6 NW 24 32 13 17 1019.9 1019.9 0.0
11/10:30am 14.4 9.6 7.2 62 3.5 NW 22 30 12 16 1020.2 1020.2 0.0
11/10:00am 14.1 10.2 7.2 63 3.4 WNW 17 28 9 15 1020.5 1020.5 0.0
11/09:30am 13.2 8.8 6.5 64 3.2 WNW 19 24 10 13 1020.6 1020.6 0.0
11/09:00am 12.3 7.7 6.4 67 2.8 WNW 20 28 11 15 1020.7 1020.7 0.0
11/08:30am 11.6 7.7 7.1 74 2.2 WNW 17 22 9 12 1020.9 1020.9 0.0
11/08:00am 11.1 6.5 6.6 74 2.1 WNW 20 24 11 13 1020.8 1020.8 0.0
11/07:30am 10.5 6.0 5.9 73 2.1 WNW 19 24 10 13 1021.0 1021.0 0.0
11/07:00am 10.8 6.4 6.7 76 1.9 WNW 19 22 10 12 1021.0 1021.0 0.0
11/06:30am 10.9 8.0 6.5 74 2.1 W 11 15 6 8 1020.7 1020.7 0.0
11/06:00am 11.5 8.6 6.6 72 2.3 WNW 11 17 6 9 1020.5 1020.5 0.0
11/05:30am 12.4 10.3 6.0 65 3.0 NW 6 13 3 7 1020.4 1020.4 0.0
11/05:00am 12.2 9.9 5.8 65 3.0 W 7 13 4 7 1020.4 1020.4 0.0
11/04:30am 12.3 9.0 6.4 67 2.8 WNW 13 17 7 9 1020.4 1020.4 0.0
11/04:00am 12.4 9.1 6.5 67 2.8 W 13 17 7 9 1020.4 1020.4 0.0
11/03:30am 12.3 8.2 6.4 67 2.8 W 17 20 9 11 1020.6 1020.6 0.0
11/03:00am 12.2 8.1 6.0 66 2.9 W 17 20 9 11 1020.8 1020.8 0.0
11/02:30am 12.3 7.9 6.6 68 2.7 W 19 22 10 12 1020.9 1020.9 0.0
11/02:00am 12.2 7.4 5.8 65 3.0 W 20 26 11 14 1021.2 1021.2 0.0
11/01:30am 12.3 8.3 6.6 68 2.7 W 17 22 9 12 1021.3 1021.3 0.0
11/01:00am 12.4 7.9 6.2 66 2.9 WSW 19 24 10 13 1021.3 1021.3 0.0
11/12:30am 12.4 8.0 6.7 68 2.7 WSW 19 24 10 13 1021.2 1021.2 0.0
11/12:00am 12.4 7.8 6.5 67 2.8 WSW 20 24 11 13 1021.2 1021.2 0.0
 
Date/Time
EST
Temp
°C
App
Temp
°C
Dew
Point
°C
Rel
Hum
%
Delta-T
°C
Wind Press
QNH
hPa
Press
MSL
hPa
Rain since
9am
mm
Dir  Spd
km/h
Gust
km/h
Spd
kts
Gust
kts
10/11:30pm 12.3 7.7 6.4 67 2.8 WSW 20 26 11 14 1021.2 1021.2 0.0
10/11:00pm 12.4 7.4 6.5 67 2.8 WSW 22 28 12 15 1021.4 1021.4 0.0
10/10:30pm 12.3 6.6 6.8 69 2.6 WSW 26 30 14 16 1021.5 1021.5 0.0
10/10:00pm 12.2 7.0 7.1 71 2.4 WSW 24 30 13 16 1021.7 1021.7 0.0
10/09:30pm 12.1 6.6 7.6 74 2.2 WSW 26 32 14 17 1021.8 1021.8 0.0
10/09:00pm 12.4 6.8 7.3 71 2.5 WSW 26 32 14 17 1022.0 1022.0 0.0
10/08:30pm 12.6 7.9 7.9 73 2.3 SW 22 28 12 15 1022.1 1022.1 0.0
10/08:00pm 12.7 7.3 7.8 72 2.4 WSW 26 32 14 17 1021.9 1021.9 0.0
10/07:30pm 12.8 8.0 7.3 69 2.7 SW 22 30 12 16 1021.8 1021.8 0.0
10/07:00pm 12.8 7.5 6.8 67 2.9 SW 24 32 13 17 1021.7 1021.7 0.0
10/06:30pm 12.8 7.1 6.6 66 3.0 SSW 26 32 14 17 1021.6 1021.6 0.0
10/06:00pm 12.9 6.3 6.0 63 3.3 SSW 30 35 16 19 1021.3 1021.3 0.0
10/05:30pm 13.0 6.0 6.8 66 3.0 SSW 33 41 18 22 1021.1 1021.1 0.0
10/05:00pm 13.1 6.1 6.7 65 3.1 SSW 33 43 18 23 1020.8 1020.8 0.0
10/04:30pm 12.9 6.1 6.7 66 3.0 SSW 32 41 17 22 1020.7 1020.7 0.0
10/04:00pm 12.6 5.8 7.7 72 2.4 S 33 44 18 24 1020.6 1020.6 0.0
10/03:30pm 12.3 5.6 8.2 76 2.0 SSW 33 46 18 25 1020.8 1020.8 0.0
10/03:00pm 12.9 5.3 7.6 70 2.6 SW 37 48 20 26 1020.7 1020.7 0.0
10/02:30pm 13.0 5.3 7.2 68 2.8 SW 37 50 20 27 1020.5 1020.5 0.0
10/02:00pm 13.3 5.3 7.5 68 2.8 SSW 39 50 21 27 1020.5 1020.5 0.0
10/01:30pm 13.4 5.4 7.6 68 2.9 SSW 39 50 21 27 1020.8 1020.8 0.0
10/01:00pm 12.8 4.8 7.3 69 2.7 SW 39 48 21 26 1020.9 1020.9 0.0
10/12:30pm 11.6 5.1 8.3 80 1.6 SW 32 41 17 22 1021.2 1021.2 0.0
10/12:00pm 11.8 3.0 8.1 78 1.8 SW 44 57 24 31 1021.4 1021.4 0.0
10/11:35am 11.9 3.9 9.1 83 1.4 SSW 41 61 22 33 1021.5 1021.5 0.0
10/11:30am 11.4 1.9 8.4 82 1.5 SSW 48 63 26 34 1021.5 1021.5 0.0
10/11:00am 13.1 4.5 8.0 71 2.5 SW 43 57 23 31 1021.2 1021.2 0.0
10/10:30am 12.7 4.2 8.4 75 2.1 SW 43 54 23 29 1021.2 1021.2 0.0
10/10:00am 12.6 4.9 8.7 77 1.9 SW 39 52 21 28 1021.1 1021.1 0.0
10/09:30am 13.0 3.4 7.9 71 2.5 SSW 48 59 26 32 1020.7 1020.7 0.0
10/09:00am 12.8 4.0 7.9 72 2.4 SSW 44 59 24 32 1020.4 1020.4 4.8
10/08:30am 12.4 3.3 8.3 76 2.0 SSW 46 61 25 33 1020.1 1020.1 4.8
10/08:00am 12.0 3.0 8.8 81 1.6 SSW 46 59 25 32 1019.9 1019.9 4.8
10/07:34am 12.9 3.1 8.6 75 2.2 SSW 50 70 27 38 1019.3 1019.3 4.6
10/07:30am 12.5 3.2 9.3 81 1.6 SSW 48 63 26 34 1019.4 1019.4 4.6
10/07:00am 12.0 2.7 9.2 83 1.4 SSW 48 65 26 35 1018.9 1018.9 4.6
10/06:43am 11.9 2.7 9.5 85 1.2 SSW 48 65 26 35 1018.8 1018.8 4.6
10/06:30am 12.8 2.7 8.9 77 2.0 S 52 67 28 36 1018.6 1018.6 4.4
10/06:00am 13.2 3.9 9.1 76 2.1 SSW 48 63 26 34 1018.0 1018.0 4.4
10/05:30am 13.1 3.3 8.6 74 2.3 S 50 61 27 33 1017.7 1017.7 4.4
10/05:00am 13.1 3.5 9.5 79 1.8 SSW 50 63 27 34 1017.6 1017.6 4.4
10/04:30am 12.5 3.2 10.6 88 1.0 SSW 50 61 27 33 1017.4 1017.4 4.4
10/04:10am 12.7 2.8 11.1 90 0.8 S 54 63 29 34 1017.4 1017.4 4.4
10/04:00am 13.2 2.9 10.9 86 1.2 SSE 56 67 30 36 1017.4 1017.4 4.4
10/03:30am 12.7 4.9 11.9 95 0.4 S 44 57 24 31 1017.3 1017.3 4.2
10/03:20am 12.8 5.1 12.2 96 0.3 S 44 65 24 35 1017.2 1017.2 4.2
10/03:00am 12.1 3.9 11.8 98 0.2 S 46 63 25 34 1017.2 1017.2 4.2
10/02:44am 12.6 4.6 10.3 86 1.2 S 43 63 23 34 1017.2 1017.2 2.4
10/02:33am 13.4 5.2 9.8 79 1.9 SSE 43 52 23 28 1017.2 1017.2 2.4
10/02:30am 13.8 5.4 9.8 77 2.1 SSE 44 52 24 28 1017.2 1017.2 2.4
10/02:00am 14.4 4.7 7.7 64 3.3 SSE 48 57 26 31 1017.1 1017.1 2.4
10/01:30am 14.1 4.3 7.2 63 3.4 SSE 48 61 26 33 1017.3 1017.3 2.4
10/01:00am 14.2 4.1 8.8 70 2.7 SSE 52 65 28 35 1016.8 1016.8 2.4
10/12:30am 14.2 3.8 9.4 73 2.5 S 54 65 29 35 1016.8 1016.8 2.4
10/12:00am 14.2 3.3 9.4 73 2.5 SSE 57 69 31 37 1016.7 1016.7 2.4
 
Date/Time
EST
Temp
°C
App
Temp
°C
Dew
Point
°C
Rel
Hum
%
Delta-T
°C
Wind Press
QNH
hPa
Press
MSL
hPa
Rain since
9am
mm
Dir  Spd
km/h
Gust
km/h
Spd
kts
Gust
kts
09/11:30pm 14.5 3.8 10.3 76 2.2 SSE 57 70 31 38 1016.7 1016.7 2.4
09/11:00pm 14.5 4.0 10.9 79 1.9 SSE 57 74 31 40 1016.6 1016.6 2.4
09/10:58pm 14.3 4.2 10.5 78 2.0 SSE 54 72 29 39 1016.6 1016.6 2.4
09/10:34pm 14.3 5.6 11.3 82 1.6 S 48 78 26 42 1016.5 1016.5 2.4
09/10:32pm 14.0 6.2 11.9 87 1.1 S 44 69 24 37 1016.7 1016.7 2.4
09/10:30pm 13.7 5.4 11.4 86 1.2 S 46 63 25 34 1016.8 1016.8 2.4
09/10:28pm 13.7 4.6 11.2 85 1.3 S 50 70 27 38 1016.7 1016.7 2.4
09/10:00pm 15.0 4.3 9.4 69 2.9 SE 56 69 30 37 1016.4 1016.4 2.4
09/09:30pm 14.8 3.1 10.8 77 2.1 SSE 63 76 34 41 1016.1 1016.1 2.4
09/09:00pm 15.0 3.0 9.6 70 2.8 SSE 63 74 34 40 1015.8 1015.8 2.4
09/08:30pm 15.0 2.4 8.9 67 3.1 SSE 65 83 35 45 1015.4 1015.4 2.4
09/08:29pm 15.0 2.9 9.4 69 2.9 SSE 63 83 34 45 1015.5 1015.5 2.4
09/08:00pm 14.8 1.7 10.6 76 2.2 SE 70 82 38 44 1015.1 1015.1 2.4
09/07:30pm 14.8 2.6 10.2 74 2.4 SSE 65 80 35 43 1014.6 1014.6 2.4

Latest Capital City Observations: Canberra | Sydney | Melbourne | Brisbane | Adelaide | Perth | Hobart | Darwin

Other formats

Comma delimited format used in spreadsheet applications
http://www.bom.gov.au/fwo/IDN60903/IDN60903.94939.axf

JavaScript Object Notation format (JSON) in row-major order
http://www.bom.gov.au/fwo/IDN60903/IDN60903.94939.json

Data quality

Most of these data are generated automatically and are frequently updated. Quality checks on data are not normally performed. It is possible for incorrect values to appear. Refer to information at About Latest Weather Observations and please check the disclaimer before using these data.